Time;durP1;ratioP1;P1;durP2;ratioP2;P2;SDS_P1;SDS_P2;PMS_P1;PMS_P2;Temp;Humidity;BMP_temperature;BMP_pressure;BME280_temperature;BME280_humidity;BME280_pressure;Samples;Min_cycle;Max_cycle;Signal;HPM_P1;HPM_P2
2023/08/22 00:00:58;;;;;;;14.27;9.43;;;20.80;99.90;;;;;;5068053;28;20032;-60
2023/08/22 00:03:25;;;;;;;14.10;9.43;;;20.70;99.90;;;;;;5067828;28;20036;-60
2023/08/22 00:05:52;;;;;;;12.63;8.68;;;20.70;99.90;;;;;;5060037;28;20388;-61
2023/08/22 00:08:18;;;;;;;15.25;8.30;;;20.70;99.90;;;;;;5060875;28;20051;-60
2023/08/22 00:10:46;;;;;;;10.13;8.45;;;20.70;99.90;;;;;;5060133;28;20040;-61
2023/08/22 00:13:12;;;;;;;15.38;8.77;;;20.70;99.90;;;;;;5063616;28;20048;-62
2023/08/22 00:15:39;;;;;;;15.85;8.52;;;20.70;99.90;;;;;;5071908;28;20123;-61
2023/08/22 00:18:06;;;;;;;10.10;8.43;;;20.60;99.90;;;;;;5070839;28;20135;-61
2023/08/22 00:20:35;;;;;;;10.95;9.70;;;20.50;99.90;;;;;;5071822;28;20048;-61
2023/08/22 00:23:06;;;;;;;12.20;9.25;;;20.50;99.90;;;;;;5068104;28;20111;-61
2023/08/22 00:25:33;;;;;;;13.55;8.45;;;20.50;99.90;;;;;;5068117;28;20055;-62
2023/08/22 00:28:00;;;;;;;15.90;8.77;;;20.50;99.90;;;;;;5065167;28;20120;-62
2023/08/22 00:30:26;;;;;;;12.55;8.60;;;20.50;99.90;;;;;;5086983;28;20051;-62
2023/08/22 00:32:54;;;;;;;12.13;9.25;;;20.50;99.90;;;;;;5071380;28;20378;-61
2023/08/22 00:35:24;;;;;;;11.65;9.25;;;20.40;99.90;;;;;;5072020;28;20047;-60
2023/08/22 00:37:51;;;;;;;15.63;9.30;;;20.40;99.90;;;;;;5063298;28;20055;-62
2023/08/22 00:40:18;;;;;;;11.02;8.57;;;20.30;99.90;;;;;;5087170;28;20048;-60
2023/08/22 00:42:45;;;;;;;14.13;8.65;;;20.10;99.90;;;;;;5069792;28;20388;-60
2023/08/22 00:45:11;;;;;;;14.63;8.77;;;20.10;99.90;;;;;;5047252;28;20060;-61
2023/08/22 00:47:38;;;;;;;14.32;9.60;;;20.10;99.90;;;;;;5071750;28;20390;-60
2023/08/22 00:50:06;;;;;;;15.68;8.95;;;20.10;99.90;;;;;;5053284;28;20048;-62
2023/08/22 00:52:33;;;;;;;13.52;8.85;;;20.20;99.90;;;;;;5081209;28;20045;-62
2023/08/22 00:55:00;;;;;;;;;;;20.30;99.90;;;;;;5052298;28;20044;-62
2023/08/22 00:57:27;;;;;;;14.35;8.65;;;20.20;99.90;;;;;;5052648;28;19927;-61
2023/08/22 00:59:55;;;;;;;13.07;9.65;;;20.10;99.90;;;;;;5053075;28;20044;-62
2023/08/22 01:02:22;;;;;;;11.63;8.25;;;20.00;99.90;;;;;;5085611;28;20037;-62
2023/08/22 01:04:48;;;;;;;12.00;8.45;;;20.10;99.90;;;;;;5053338;28;20115;-61
2023/08/22 01:07:22;;;;;;;12.85;8.63;;;20.10;99.90;;;;;;5052935;28;20039;-61
2023/08/22 01:09:52;;;;;;;15.35;9.18;;;20.10;99.90;;;;;;5071237;28;20044;-61
2023/08/22 01:12:26;;;;;;;11.52;7.63;;;20.10;99.90;;;;;;5071289;28;20037;-60
2023/08/22 01:15:05;;;;;;;13.77;8.38;;;20.10;99.90;;;;;;5084304;28;20135;-61
2023/08/22 01:17:33;;;;;;;14.70;8.80;;;20.00;99.90;;;;;;5069464;28;20032;-62
2023/08/22 01:20:00;;;;;;;17.10;8.25;;;20.00;99.90;;;;;;5071537;28;20045;-61
2023/08/22 01:22:27;;;;;;;15.93;10.10;;;19.90;99.90;;;;;;5086971;28;20102;-61
2023/08/22 01:24:54;;;;;;;17.25;10.32;;;19.80;99.90;;;;;;5076829;28;20043;-62
2023/08/22 01:27:28;;;;;;;20.65;11.15;;;19.60;99.90;;;;;;5051382;28;20408;-62
2023/08/22 01:30:08;;;;;;;15.93;10.27;;;19.40;99.90;;;;;;5070608;28;20041;-62
2023/08/22 01:32:40;;;;;;;16.00;10.65;;;19.40;99.90;;;;;;5052417;28;20048;-62
2023/08/22 01:35:13;;;;;;;14.02;10.15;;;19.20;99.90;;;;;;5069243;28;20078;-61
2023/08/22 01:37:41;;;;;;;13.52;10.63;;;19.20;99.90;;;;;;5052543;28;20051;-62
2023/08/22 01:40:10;;;;;;;15.18;9.13;;;19.20;99.90;;;;;;5052994;28;20109;-62
2023/08/22 01:42:38;;;;;;;14.95;10.23;;;19.30;99.90;;;;;;5064766;28;20468;-59
2023/08/22 01:45:05;;;;;;;17.35;9.70;;;19.30;99.90;;;;;;5050663;28;20499;-60
2023/08/22 01:47:32;;;;;;;;;;;19.40;99.90;;;;;;5071339;28;20049;-62
2023/08/22 01:49:59;;;;;;;14.88;9.32;;;19.50;99.90;;;;;;5071068;28;20034;-60
2023/08/22 01:52:26;;;;;;;13.82;9.30;;;19.50;99.90;;;;;;5068030;28;20048;-61
2023/08/22 01:54:52;;;;;;;14.15;9.60;;;19.60;99.90;;;;;;5052604;28;20059;-61
2023/08/22 01:57:19;;;;;;;15.32;9.63;;;19.60;99.90;;;;;;5052776;28;20124;-62
2023/08/22 01:59:46;;;;;;;15.10;9.50;;;19.70;99.90;;;;;;5051941;28;20041;-62
2023/08/22 02:02:13;;;;;;;14.38;9.70;;;19.60;99.90;;;;;;5053188;28;20048;-62
2023/08/22 02:04:39;;;;;;;18.02;10.20;;;19.60;99.90;;;;;;5077708;28;20041;-61
2023/08/22 02:07:06;;;;;;;13.65;9.13;;;19.60;99.90;;;;;;5049945;28;20489;-61
2023/08/22 02:09:33;;;;;;;12.35;9.18;;;19.60;99.90;;;;;;5049631;28;20051;-60
2023/08/22 02:12:00;;;;;;;16.83;8.45;;;19.60;99.90;;;;;;5086127;28;20048;-62
2023/08/22 02:14:26;;;;;;;18.23;10.07;;;19.50;99.90;;;;;;5052863;28;20040;-62
2023/08/22 02:16:58;;;;;;;15.88;9.25;;;19.40;99.90;;;;;;5061524;28;20132;-61
2023/08/22 02:19:24;;;;;;;14.75;9.10;;;19.20;99.90;;;;;;5070345;28;20051;-61
2023/08/22 02:21:51;;;;;;;13.25;9.18;;;19.10;99.90;;;;;;5052670;28;20451;-60
2023/08/22 02:24:18;;;;;;;13.82;9.85;;;19.00;99.90;;;;;;5082578;28;20048;-61
2023/08/22 02:26:47;;;;;;;16.15;10.40;;;18.90;99.90;;;;;;5050442;28;20389;-61
2023/08/22 02:29:13;;;;;;;17.73;9.75;;;18.80;99.90;;;;;;5056571;28;20038;-61
2023/08/22 02:31:40;;;;;;;13.45;10.48;;;18.80;99.90;;;;;;5089774;28;20094;-62
2023/08/22 02:34:07;;;;;;;14.63;9.63;;;18.80;99.90;;;;;;5056473;28;20489;-62
2023/08/22 02:36:34;;;;;;;14.35;9.82;;;18.80;99.90;;;;;;5074255;28;20052;-61
2023/08/22 02:39:00;;;;;;;14.68;10.00;;;19.00;99.90;;;;;;5081417;28;20047;-61
2023/08/22 02:41:27;;;;;;;14.57;9.90;;;19.00;99.90;;;;;;5055080;28;20048;-61
2023/08/22 02:43:56;;;;;;;14.77;9.60;;;19.10;99.90;;;;;;5056033;28;20060;-61
2023/08/22 02:46:23;;;;;;;15.07;9.23;;;19.30;99.90;;;;;;5071115;28;20068;-59
2023/08/22 02:48:50;;;;;;;16.08;10.25;;;19.30;99.90;;;;;;5056076;28;20486;-60
2023/08/22 02:51:16;;;;;;;13.80;9.30;;;19.30;99.90;;;;;;5055728;28;20044;-60
2023/08/22 02:53:43;;;;;;;14.40;9.98;;;19.40;99.90;;;;;;5069255;28;20045;-61
2023/08/22 02:56:11;;;;;;;16.52;10.48;;;19.40;99.90;;;;;;5073851;28;20083;-62
2023/08/22 02:58:38;;;;;;;15.48;10.00;;;19.30;99.90;;;;;;5055655;28;20040;-60
2023/08/22 03:01:06;;;;;;;15.88;9.95;;;19.30;99.90;;;;;;5070772;28;20079;-62
2023/08/22 03:03:34;;;;;;;14.35;9.02;;;19.30;99.90;;;;;;5043451;28;20123;-62
2023/08/22 03:09:05;;;;;;;14.50;9.68;;;19.20;99.90;;;;;;5064872;28;19908;-61
2023/08/22 03:11:32;;;;;;;15.93;9.88;;;19.10;99.90;;;;;;5065705;28;20036;-61
2023/08/22 03:13:59;;;;;;;;;;;19.10;99.90;;;;;;5081002;28;20040;-60
2023/08/22 03:16:27;;;;;;;15.38;10.13;;;19.10;99.90;;;;;;5055350;28;20369;-61
2023/08/22 03:18:54;;;;;;;16.83;10.60;;;19.20;99.90;;;;;;5055349;28;20040;-62
2023/08/22 03:21:21;;;;;;;17.05;10.10;;;19.10;99.90;;;;;;5053923;28;24003;-62
2023/08/22 03:23:48;;;;;;;19.63;10.18;;;19.10;99.90;;;;;;5073137;28;20049;-58
2023/08/22 03:26:16;;;;;;;14.05;10.23;;;19.10;99.90;;;;;;5053544;28;20520;-62
2023/08/22 03:28:43;;;;;;;14.50;9.70;;;19.00;99.90;;;;;;5069090;28;20491;-61
2023/08/22 03:31:10;;;;;;;18.30;10.55;;;19.00;99.90;;;;;;5054795;28;20040;-61
2023/08/22 03:33:37;;;;;;;15.85;10.52;;;18.90;99.90;;;;;;5054741;28;20045;-59
2023/08/22 03:36:07;;;;;;;17.95;10.45;;;18.90;99.90;;;;;;5040783;28;20045;-61
2023/08/22 03:38:34;;;;;;;17.38;10.48;;;18.90;99.90;;;;;;5049844;28;20036;-60
2023/08/22 03:41:01;;;;;;;14.77;10.27;;;19.00;99.90;;;;;;5087810;28;20500;-59
2023/08/22 03:43:27;;;;;;;13.77;10.13;;;19.00;99.90;;;;;;5055070;28;20075;-61
2023/08/22 03:45:55;;;;;;;14.32;10.10;;;19.00;99.90;;;;;;5049380;28;20044;-60
2023/08/22 03:48:23;;;;;;;17.52;10.55;;;19.00;99.90;;;;;;5053374;28;20620;-61
2023/08/22 03:50:52;;;;;;;14.93;11.50;;;19.00;99.90;;;;;;5054068;28;20051;-61
2023/08/22 03:53:18;;;;;;;15.90;10.05;;;19.00;99.90;;;;;;5054791;28;20048;-61
2023/08/22 03:55:45;;;;;;;13.70;9.40;;;19.00;99.90;;;;;;5045385;28;20044;-62
2023/08/22 03:58:12;;;;;;;18.33;10.57;;;19.00;99.90;;;;;;5082469;28;20040;-62
2023/08/22 04:00:39;;;;;;;13.70;10.18;;;19.00;99.90;;;;;;5049369;28;20063;-61
2023/08/22 04:03:06;;;;;;;15.77;9.48;;;18.90;99.90;;;;;;5067324;28;20036;-61
2023/08/22 04:05:33;;;;;;;22.13;10.30;;;18.90;99.90;;;;;;5053821;28;20037;-61
2023/08/22 04:08:01;;;;;;;17.35;10.38;;;18.90;99.90;;;;;;5053428;28;20509;-62
2023/08/22 04:10:27;;;;;;;17.20;10.20;;;18.90;99.90;;;;;;5051007;28;20060;-60
2023/08/22 04:12:54;;;;;;;18.67;10.75;;;18.90;99.90;;;;;;5070538;28;20404;-61
2023/08/22 04:15:21;;;;;;;19.70;10.52;;;18.90;99.90;;;;;;5071320;28;20108;-60
2023/08/22 04:17:48;;;;;;;15.70;10.73;;;18.90;99.90;;;;;;5079375;28;20056;-61
2023/08/22 04:20:17;;;;;;;16.45;10.50;;;18.90;99.90;;;;;;5051392;28;20503;-61
2023/08/22 04:22:44;;;;;;;16.35;10.98;;;18.80;99.90;;;;;;5054264;28;20117;-61
2023/08/22 04:25:11;;;;;;;16.05;10.38;;;18.90;99.90;;;;;;5052494;28;20123;-60
2023/08/22 04:27:39;;;;;;;16.85;10.70;;;18.80;99.90;;;;;;5053828;28;20051;-61
2023/08/22 04:30:08;;;;;;;14.27;10.35;;;18.80;99.90;;;;;;5052400;28;20047;-61
2023/08/22 04:32:36;;;;;;;12.93;9.48;;;18.90;99.90;;;;;;5082642;28;20041;-61
2023/08/22 04:35:05;;;;;;;14.15;10.05;;;18.90;99.90;;;;;;5072985;28;20054;-61
2023/08/22 04:37:32;;;;;;;15.60;9.68;;;19.00;99.90;;;;;;5071947;28;20036;-61
2023/08/22 04:40:00;;;;;;;11.75;10.02;;;19.00;99.90;;;;;;5075535;28;20072;-61
2023/08/22 04:42:53;;;;;;;14.80;10.40;;;19.10;99.90;;;;;;5066783;28;20425;-61
2023/08/22 04:45:20;;;;;;;13.35;10.23;;;19.00;99.90;;;;;;5049149;28;20036;-61
2023/08/22 04:47:47;;;;;;;14.95;9.82;;;18.90;99.90;;;;;;5071495;28;20047;-61
2023/08/22 04:50:14;;;;;;;;;;;19.00;99.90;;;;;;5087556;28;20453;-61
2023/08/22 04:52:41;;;;;;;15.85;10.50;;;18.90;99.90;;;;;;5048820;28;19953;-59
2023/08/22 04:55:08;;;;;;;15.23;9.93;;;18.90;99.90;;;;;;5043731;28;20041;-60
2023/08/22 04:57:35;;;;;;;15.93;10.15;;;18.90;99.90;;;;;;5070825;28;20033;-60
2023/08/22 05:00:03;;;;;;;14.68;10.52;;;18.90;99.90;;;;;;5027665;28;20051;-61
2023/08/22 05:02:30;;;;;;;19.77;11.60;;;18.90;99.90;;;;;;5081525;28;20094;-60
2023/08/22 05:04:57;;;;;;;15.30;10.43;;;19.00;99.90;;;;;;5052956;28;20086;-61
2023/08/22 05:07:24;;;;;;;16.70;11.00;;;19.00;99.90;;;;;;5052964;28;20047;-60
2023/08/22 05:09:52;;;;;;;15.18;11.00;;;19.00;99.90;;;;;;5048174;28;20080;-59
2023/08/22 05:12:19;;;;;;;15.93;10.25;;;19.10;99.90;;;;;;5053421;28;20090;-61
2023/08/22 05:14:45;;;;;;;20.60;10.73;;;19.20;99.90;;;;;;5053273;28;20119;-61
2023/08/22 05:17:13;;;;;;;;;;;19.20;99.90;;;;;;5052621;28;20039;-61
2023/08/22 05:19:40;;;;;;;22.50;10.25;;;19.20;99.90;;;;;;5051986;28;19920;-61
2023/08/22 05:22:08;;;;;;;12.43;10.00;;;19.20;99.90;;;;;;5053200;28;20049;-61
2023/08/22 05:24:36;;;;;;;17.00;10.25;;;19.30;99.90;;;;;;5051863;28;20041;-61
2023/08/22 05:27:02;;;;;;;13.07;10.13;;;19.30;99.90;;;;;;5049892;28;20132;-61
2023/08/22 05:29:29;;;;;;;14.60;9.80;;;19.30;99.90;;;;;;5052795;28;20045;-60
2023/08/22 05:31:56;;;;;;;15.70;9.90;;;19.30;99.90;;;;;;5068642;28;20515;-61
2023/08/22 05:34:23;;;;;;;14.43;9.85;;;19.30;99.90;;;;;;5047102;28;20044;-61
2023/08/22 05:36:50;;;;;;;15.85;10.18;;;19.40;99.90;;;;;;5051736;28;20553;-60
2023/08/22 05:39:17;;;;;;;18.00;10.18;;;19.40;99.90;;;;;;5041816;28;20060;-60
2023/08/22 05:41:44;;;;;;;16.48;11.00;;;19.50;99.90;;;;;;5050988;28;20048;-60
2023/08/22 05:44:12;;;;;;;14.05;10.35;;;19.50;99.90;;;;;;5051768;28;20404;-59
2023/08/22 05:46:39;;;;;;;12.07;9.40;;;19.60;99.90;;;;;;5050258;28;20117;-62
2023/08/22 05:49:07;;;;;;;18.67;12.15;;;19.60;99.90;;;;;;5077646;28;20051;-62
2023/08/22 05:51:36;;;;;;;20.80;11.50;;;19.70;99.90;;;;;;5052017;28;20473;-62
2023/08/22 05:54:03;;;;;;;16.92;10.45;;;19.80;99.90;;;;;;5063793;28;20504;-62
2023/08/22 05:56:30;;;;;;;;;;;19.80;99.90;;;;;;5052193;28;20102;-59
2023/08/22 05:58:57;;;;;;;15.55;10.88;;;19.90;99.90;;;;;;5055502;28;20266;-60
2023/08/22 06:01:23;;;;;;;11.88;9.45;;;20.00;99.90;;;;;;5054930;28;20032;-60
2023/08/22 06:03:52;;;;;;;14.80;9.88;;;20.00;99.90;;;;;;5081727;28;20458;-61
2023/08/22 06:06:19;;;;;;;13.77;10.10;;;20.10;99.90;;;;;;5046783;28;20037;-61
2023/08/22 06:08:46;;;;;;;14.15;10.52;;;20.10;99.90;;;;;;5054690;28;20386;-60
2023/08/22 06:11:13;;;;;;;;;;;20.20;99.90;;;;;;5056573;28;20055;-59
2023/08/22 06:13:40;;;;;;;15.50;10.27;;;20.30;99.90;;;;;;5055515;28;19926;-61
2023/08/22 06:16:07;;;;;;;19.23;10.18;;;20.30;99.90;;;;;;5068736;28;20044;-61
2023/08/22 06:18:34;;;;;;;13.60;10.57;;;20.40;99.90;;;;;;5049859;28;20440;-61
2023/08/22 06:21:01;;;;;;;20.63;11.38;;;20.40;99.90;;;;;;5073980;28;20378;-61
2023/08/22 06:23:28;;;;;;;16.95;10.65;;;20.50;99.90;;;;;;5055843;28;20036;-60
2023/08/22 06:25:55;;;;;;;13.50;9.48;;;20.50;99.90;;;;;;5070776;28;20044;-61
2023/08/22 06:28:22;;;;;;;14.32;10.60;;;20.60;99.90;;;;;;5065520;28;20040;-61
2023/08/22 06:30:49;;;;;;;11.90;10.10;;;20.70;99.90;;;;;;5056158;28;20368;-61
2023/08/22 06:33:16;;;;;;;14.93;10.65;;;20.80;99.90;;;;;;5055557;28;22577;-61
2023/08/22 06:35:47;;;;;;;15.88;10.52;;;20.90;99.90;;;;;;5055710;28;20044;-60
2023/08/22 06:38:13;;;;;;;18.20;10.30;;;21.10;99.90;;;;;;5052069;28;20044;-61
2023/08/22 06:40:41;;;;;;;16.13;9.80;;;21.20;99.90;;;;;;5055685;28;20417;-59
2023/08/22 06:43:09;;;;;;;18.38;9.25;;;21.30;99.90;;;;;;5072266;28;20045;-61
2023/08/22 06:45:36;;;;;;;17.30;9.98;;;21.40;99.90;;;;;;5055066;28;20090;-61
2023/08/22 06:48:04;;;;;;;15.32;10.02;;;21.50;99.90;;;;;;5088033;28;20513;-59
2023/08/22 06:50:30;;;;;;;15.75;10.30;;;21.70;99.90;;;;;;5073780;28;20046;-61
2023/08/22 06:52:57;;;;;;;13.85;10.15;;;21.80;99.90;;;;;;5069828;28;20392;-60
2023/08/22 06:55:24;;;;;;;12.73;9.82;;;21.90;99.90;;;;;;5064973;28;20032;-61
2023/08/22 06:57:51;;;;;;;17.15;10.38;;;22.00;99.90;;;;;;5073454;28;20101;-61
2023/08/22 07:00:18;;;;;;;13.70;9.35;;;22.20;99.90;;;;;;5068700;28;20037;-61
2023/08/22 07:02:46;;;;;;;14.27;10.02;;;22.20;99.90;;;;;;5073538;28;20055;-58
2023/08/22 07:05:15;;;;;;;15.88;10.98;;;22.30;99.90;;;;;;5061009;28;20136;-61
2023/08/22 07:07:42;;;;;;;16.50;10.52;;;22.30;99.90;;;;;;5073373;28;20094;-61
2023/08/22 07:10:10;;;;;;;16.75;11.13;;;22.40;99.90;;;;;;5071436;28;20044;-61
2023/08/22 07:12:38;;;;;;;18.33;11.15;;;22.50;99.90;;;;;;5073645;28;20119;-61
2023/08/22 07:15:06;;;;;;;15.05;9.52;;;22.70;99.90;;;;;;5064772;28;20044;-60
2023/08/22 07:17:33;;;;;;;23.08;10.45;;;22.80;99.90;;;;;;5072822;28;20396;-60
2023/08/22 07:20:00;;;;;;;;;;;23.00;99.90;;;;;;5073378;28;20549;-61
2023/08/22 07:22:27;;;;;;;13.13;9.73;;;23.00;99.90;;;;;;5060305;28;20288;-60
2023/08/22 07:24:53;;;;;;;;;;;23.10;99.90;;;;;;5073476;28;20041;-61
2023/08/22 07:27:21;;;;;;;13.20;9.70;;;23.10;99.90;;;;;;5072142;28;20273;-61
2023/08/22 07:29:48;;;;;;;16.98;9.70;;;23.30;99.90;;;;;;5073424;28;20058;-60
2023/08/22 07:32:18;;;;;;;17.98;10.32;;;23.40;99.90;;;;;;5067276;28;20482;-61
2023/08/22 07:34:46;;;;;;;12.88;9.70;;;23.50;99.90;;;;;;5067039;28;20102;-62
2023/08/22 07:37:13;;;;;;;16.05;9.63;;;23.60;99.90;;;;;;5072062;28;20599;-61
2023/08/22 07:39:41;;;;;;;11.40;9.55;;;23.80;99.90;;;;;;5072814;28;20045;-61
2023/08/22 07:42:08;;;;;;;12.38;9.77;;;23.90;99.90;;;;;;5062463;28;20482;-60
2023/08/22 07:44:35;;;;;;;12.77;9.50;;;24.00;99.90;;;;;;5072585;28;20041;-60
2023/08/22 07:47:02;;;;;;;;;;;24.10;99.90;;;;;;5068640;28;20041;-61
2023/08/22 07:49:29;;;;;;;14.23;9.63;;;24.20;99.90;;;;;;5072827;28;19920;-61
2023/08/22 07:51:56;;;;;;;13.27;9.63;;;24.30;99.90;;;;;;5071547;28;20062;-62
2023/08/22 07:54:22;;;;;;;11.77;8.85;;;24.40;99.90;;;;;;5067757;28;20311;-61
2023/08/22 07:56:49;;;;;;;19.10;10.25;;;24.40;99.90;;;;;;5066437;28;20497;-62
2023/08/22 07:59:22;;;;;;;15.02;8.85;;;24.50;99.90;;;;;;5071343;28;20050;-62
2023/08/22 08:01:49;;;;;;;12.60;9.90;;;24.60;99.90;;;;;;5064623;28;20075;-61
2023/08/22 08:04:16;;;;;;;13.05;10.13;;;24.60;99.90;;;;;;5071843;28;20044;-61
2023/08/22 08:06:45;;;;;;;;;;;24.80;99.90;;;;;;5071373;28;20048;-62
2023/08/22 08:09:13;;;;;;;13.50;10.10;;;24.90;99.90;;;;;;5050461;28;19920;-61
2023/08/22 08:11:59;;;;;;;16.67;9.20;;;25.00;99.90;;;;;;5067903;28;20044;-62
2023/08/22 08:14:25;;;;;;;14.77;9.93;;;25.20;99.90;;;;;;5070366;28;20075;-61
2023/08/22 08:16:52;;;;;;;13.25;9.85;;;25.40;99.90;;;;;;5071649;28;20084;-62
2023/08/22 08:19:19;;;;;;;18.42;10.93;;;25.50;99.90;;;;;;5061301;28;20044;-61
2023/08/22 08:21:46;;;;;;;19.08;9.95;;;25.70;99.90;;;;;;5057292;28;20048;-61
2023/08/22 08:24:15;;;;;;;14.80;10.23;;;25.80;99.90;;;;;;5070838;28;20051;-62
2023/08/22 08:26:42;;;;;;;15.63;10.50;;;25.80;99.90;;;;;;5053548;28;20055;-62
2023/08/22 08:29:09;;;;;;;13.70;10.50;;;26.00;99.90;;;;;;5069863;28;20572;-61
2023/08/22 08:31:35;;;;;;;;;;;26.00;99.90;;;;;;5072058;28;20111;-61
2023/08/22 08:34:02;;;;;;;15.55;10.38;;;25.90;99.90;;;;;;5071140;28;19958;-61
2023/08/22 08:36:31;;;;;;;14.32;11.10;;;26.00;99.90;;;;;;5068571;28;20040;-62
2023/08/22 08:38:58;;;;;;;12.13;10.13;;;26.10;99.90;;;;;;5070425;28;20044;-61
2023/08/22 08:41:24;;;;;;;16.13;9.75;;;26.20;99.90;;;;;;5071462;28;20033;-62
2023/08/22 08:43:51;;;;;;;;;;;26.40;99.90;;;;;;5067440;28;20049;-62
2023/08/22 08:46:19;;;;;;;18.08;10.00;;;26.40;99.90;;;;;;5068721;28;19920;-61
2023/08/22 08:48:46;;;;;;;16.88;9.90;;;26.50;99.90;;;;;;5070389;28;20041;-61
2023/08/22 08:51:16;;;;;;;13.27;9.95;;;26.70;99.90;;;;;;5071346;28;20059;-61
2023/08/22 08:53:43;;;;;;;14.13;10.32;;;26.80;99.90;;;;;;5065519;28;20627;-62
2023/08/22 08:56:11;;;;;;;14.57;10.40;;;26.90;99.90;;;;;;5071011;28;20456;-62
2023/08/22 08:58:38;;;;;;;11.77;10.02;;;27.00;99.90;;;;;;5062920;28;20448;-62
2023/08/22 09:01:07;;;;;;;12.60;10.50;;;27.00;99.90;;;;;;5071328;28;20072;-62
2023/08/22 09:03:34;;;;;;;13.82;10.20;;;27.20;99.90;;;;;;5065519;28;20192;-62
2023/08/22 09:06:00;;;;;;;14.25;9.35;;;27.40;99.90;;;;;;5066100;28;20044;-62
2023/08/22 09:08:27;;;;;;;14.35;10.57;;;27.50;99.90;;;;;;5064814;28;20055;-62
2023/08/22 09:10:54;;;;;;;17.63;10.30;;;27.70;99.90;;;;;;5070829;28;20033;-62
2023/08/22 09:13:28;;;;;;;13.43;10.05;;;27.70;99.90;;;;;;5070131;28;20481;-62
2023/08/22 09:16:16;;;;;;;13.65;10.20;;;27.80;99.90;;;;;;5064720;28;20122;-62
2023/08/22 09:18:43;;;;;;;15.02;10.25;;;27.90;99.90;;;;;;5070892;28;20051;-62
2023/08/22 09:21:10;;;;;;;;;;;27.90;99.90;;;;;;5070739;28;20044;-62
2023/08/22 09:23:40;;;;;;;15.50;10.93;;;27.90;99.90;;;;;;5069604;28;19920;-62
2023/08/22 09:26:07;;;;;;;13.60;9.50;;;28.10;99.90;;;;;;5067064;28;20044;-62
2023/08/22 09:28:45;;;;;;;14.13;9.98;;;28.10;99.90;;;;;;5070647;28;20090;-62
2023/08/22 09:31:24;;;;;;;17.85;9.57;;;28.20;99.90;;;;;;5069724;28;20064;-62
2023/08/22 09:33:51;;;;;;;13.57;10.30;;;28.30;99.90;;;;;;5070822;28;20040;-62
2023/08/22 09:36:22;;;;;;;14.35;11.10;;;28.30;99.90;;;;;;5069293;28;20465;-62
2023/08/22 09:38:55;;;;;;;12.18;10.15;;;28.40;99.90;;;;;;5070820;28;20490;-62
2023/08/22 09:41:24;;;;;;;18.90;10.60;;;28.50;99.90;;;;;;5070872;28;20047;-62
2023/08/22 09:43:58;;;;;;;11.85;9.75;;;28.60;99.90;;;;;;5067271;28;20599;-61
2023/08/22 09:46:26;;;;;;;15.13;10.93;;;28.80;99.90;;;;;;5070362;28;20044;-61
2023/08/22 09:48:56;;;;;;;12.95;10.25;;;28.70;99.90;;;;;;5070052;28;20052;-62
2023/08/22 09:51:24;;;;;;;14.02;10.15;;;28.70;99.90;;;;;;5071007;28;20051;-61
2023/08/22 09:53:52;;;;;;;17.60;10.57;;;28.70;99.90;;;;;;5066860;28;20124;-60
2023/08/22 09:56:20;;;;;;;13.38;10.27;;;28.70;99.90;;;;;;5070289;28;20119;-59
2023/08/22 09:58:47;;;;;;;15.23;11.27;;;28.80;99.90;;;;;;5069109;28;20044;-62
2023/08/22 10:01:16;;;;;;;;;;;28.90;99.90;;;;;;5071263;28;20051;-60
2023/08/22 10:03:44;;;;;;;18.60;11.75;;;28.90;99.90;;;;;;5062069;28;19927;-62
2023/08/22 10:06:13;;;;;;;17.50;10.85;;;28.90;99.90;;;;;;5070299;28;20131;-61
2023/08/22 10:08:45;;;;;;;20.33;11.13;;;28.90;99.90;;;;;;5070173;28;20042;-62
2023/08/22 10:11:14;;;;;;;16.88;11.02;;;29.00;99.90;;;;;;5068838;28;20048;-62
2023/08/22 10:13:43;;;;;;;14.38;11.52;;;29.00;99.90;;;;;;5070211;28;20553;-62
2023/08/22 10:16:10;;;;;;;15.70;10.85;;;29.10;99.90;;;;;;5069932;28;20128;-62
2023/08/22 10:18:38;;;;;;;12.98;10.40;;;29.20;99.90;;;;;;5070252;28;20049;-60
2023/08/22 10:21:05;;;;;;;14.98;10.30;;;29.30;99.90;;;;;;5067863;28;20051;-61
2023/08/22 10:23:54;;;;;;;14.93;10.35;;;29.40;99.90;;;;;;5070284;28;20033;-61
2023/08/22 10:26:22;;;;;;;17.75;11.35;;;29.40;99.90;;;;;;5068950;28;20054;-61
2023/08/22 10:29:12;;;;;;;14.02;10.00;;;29.50;99.90;;;;;;5070339;28;20037;-62
2023/08/22 10:32:00;;;;;;;12.93;10.38;;;29.60;99.90;;;;;;5069566;28;20507;-61
2023/08/22 10:34:27;;;;;;;12.77;10.02;;;29.70;99.90;;;;;;5069777;28;20048;-61
2023/08/22 10:36:59;;;;;;;15.82;10.45;;;29.80;99.90;;;;;;5067774;28;20040;-61
2023/08/22 10:39:37;;;;;;;13.85;10.13;;;29.90;99.90;;;;;;5064021;28;20552;-61
2023/08/22 10:42:26;;;;;;;11.32;9.77;;;29.80;99.90;;;;;;5070313;28;20513;-62
2023/08/22 10:44:56;;;;;;;13.50;9.50;;;29.80;99.90;;;;;;5064482;28;20051;-61
2023/08/22 10:47:28;;;;;;;15.85;10.60;;;30.00;99.90;;;;;;5073196;28;20370;-62
2023/08/22 10:49:57;;;;;;;12.38;10.00;;;30.00;99.90;;;;;;5072747;28;20516;-60
2023/08/22 10:52:41;;;;;;;13.98;10.02;;;30.10;99.90;;;;;;5069154;28;20063;-61
2023/08/22 10:55:11;;;;;;;20.58;10.57;;;30.10;99.90;;;;;;5071656;28;20049;-61
2023/08/22 10:57:53;;;;;;;13.93;9.88;;;30.20;99.90;;;;;;5073079;28;20079;-60
2023/08/22 11:00:22;;;;;;;14.43;9.80;;;30.20;99.90;;;;;;5073369;28;20063;-62
2023/08/22 11:02:59;;;;;;;11.55;10.20;;;30.20;99.90;;;;;;5069553;28;20052;-61
2023/08/22 11:05:30;;;;;;;15.40;9.73;;;30.40;99.90;;;;;;5070041;28;20486;-60
2023/08/22 11:07:57;;;;;;;14.15;9.75;;;30.60;99.90;;;;;;5069899;28;20044;-60
2023/08/22 11:10:25;;;;;;;11.32;10.13;;;30.70;99.90;;;;;;5073118;28;20079;-62
2023/08/22 11:12:55;;;;;;;14.15;9.80;;;30.70;99.90;;;;;;5072368;28;20131;-61
2023/08/22 11:15:22;;;;;;;17.38;9.93;;;30.70;99.90;;;;;;5084322;28;20045;-61
2023/08/22 11:17:50;;;;;;;12.35;8.98;;;30.80;99.90;;;;;;5064688;28;20493;-61
2023/08/22 11:20:23;;;;;;;13.45;9.77;;;31.00;99.90;;;;;;5073085;28;20048;-62
2023/08/22 11:22:50;;;;;;;11.93;9.88;;;31.10;99.90;;;;;;5064744;28;20047;-62
2023/08/22 11:25:25;;;;;;;15.23;8.80;;;31.20;99.90;;;;;;5068539;28;20043;-61
2023/08/22 11:27:52;;;;;;;14.60;8.75;;;31.40;99.90;;;;;;5065103;28;20481;-62
2023/08/22 11:30:20;;;;;;;11.73;9.05;;;31.50;99.90;;;;;;5054637;28;20397;-62
2023/08/22 11:32:47;;;;;;;15.20;8.50;;;31.40;99.90;;;;;;5072857;28;20544;-62
2023/08/22 11:35:15;;;;;;;15.18;8.85;;;31.40;99.90;;;;;;5065015;28;20080;-61
2023/08/22 11:37:42;;;;;;;12.15;8.32;;;31.30;99.90;;;;;;5072700;28;20059;-62
2023/08/22 11:40:15;;;;;;;12.05;8.43;;;31.20;99.90;;;;;;5072358;28;20500;-61
2023/08/22 11:42:46;;;;;;;15.43;8.70;;;31.20;99.90;;;;;;5068001;28;20116;-62
2023/08/22 11:45:15;;;;;;;14.70;9.32;;;31.30;99.90;;;;;;5068293;28;20041;-62
2023/08/22 11:48:09;;;;;;;14.02;8.55;;;31.40;99.90;;;;;;5072440;28;20064;-61
2023/08/22 11:50:36;;;;;;;9.57;8.63;;;31.40;99.90;;;;;;5069913;28;20057;-62
2023/08/22 11:53:11;;;;;;;13.38;8.60;;;31.50;99.90;;;;;;5067596;28;20051;-61
2023/08/22 11:55:43;;;;;;;10.35;7.53;;;31.60;99.90;;;;;;5061809;28;20053;-61
2023/08/22 11:58:16;;;;;;;11.27;7.35;;;31.90;99.90;;;;;;5067631;28;20036;-61
2023/08/22 12:00:44;;;;;;;14.85;7.70;;;32.00;99.90;;;;;;5071679;28;20045;-62
2023/08/22 12:03:12;;;;;;;12.98;8.45;;;31.90;99.90;;;;;;5072143;28;20504;-62
2023/08/22 12:05:41;;;;;;;8.20;6.93;;;31.70;99.90;;;;;;5069613;28;20041;-61
2023/08/22 12:08:10;;;;;;;14.98;8.23;;;31.50;99.90;;;;;;5064469;28;20045;-62
2023/08/22 12:10:39;;;;;;;8.52;7.60;;;31.60;99.90;;;;;;5071294;28;20048;-61
2023/08/22 12:13:07;;;;;;;10.30;7.53;;;31.60;99.90;;;;;;5072126;28;20050;-61
2023/08/22 12:15:34;;;;;;;18.92;8.80;;;31.60;99.90;;;;;;5066803;28;20045;-62
2023/08/22 12:18:01;;;;;;;12.77;8.65;;;31.40;99.90;;;;;;5072021;28;20040;-62
2023/08/22 12:20:28;;;;;;;12.48;7.57;;;31.30;99.90;;;;;;5071580;28;20072;-62
2023/08/22 12:22:55;;;;;;;12.15;7.93;;;31.30;99.90;;;;;;5072376;28;20041;-62
2023/08/22 12:25:22;;;;;;;;;;;31.30;99.90;;;;;;5063032;28;20497;-62
2023/08/22 12:27:48;;;;;;;12.73;8.40;;;31.40;99.90;;;;;;5070645;28;19927;-62
2023/08/22 12:30:15;;;;;;;13.50;8.32;;;31.50;99.90;;;;;;5070985;28;20040;-62
2023/08/22 12:32:43;;;;;;;;;;;31.60;99.90;;;;;;5072204;28;20052;-60
2023/08/22 12:35:10;;;;;;;12.88;8.55;;;31.70;99.90;;;;;;5064191;28;19924;-60
2023/08/22 12:37:38;;;;;;;10.55;8.20;;;31.90;99.90;;;;;;5071495;28;20051;-62
2023/08/22 12:40:10;;;;;;;15.38;8.40;;;32.00;99.90;;;;;;5071147;28;20079;-61
2023/08/22 12:42:39;;;;;;;13.85;8.20;;;32.00;99.90;;;;;;5071515;28;20036;-62
2023/08/22 12:45:10;;;;;;;13.02;8.95;;;32.10;99.90;;;;;;5063669;28;20079;-62
2023/08/22 12:47:38;;;;;;;13.35;8.60;;;32.30;99.90;;;;;;5070860;28;20455;-61